createdAt,value
2022-11-30T00:01:43.526Z,100553.30
2022-11-30T00:04:12.681Z,100535.20
2022-11-30T00:06:43.667Z,100523.94
2022-11-30T00:09:12.584Z,100520.05
2022-11-30T00:11:41.293Z,100502.75
2022-11-30T00:14:09.978Z,100501.38
2022-11-30T00:16:38.529Z,100498.30
2022-11-30T00:19:07.094Z,100487.54
2022-11-30T00:21:36.008Z,100469.92
2022-11-30T00:24:05.816Z,100470.11
2022-11-30T00:26:34.543Z,100467.73
2022-11-30T00:29:03.496Z,100459.88
2022-11-30T00:31:32.190Z,100445.54
2022-11-30T00:34:00.972Z,100421.92
2022-11-30T00:36:29.735Z,100416.83
2022-11-30T00:38:58.615Z,100410.17
2022-11-30T00:41:27.452Z,100408.66
2022-11-30T00:43:56.215Z,100406.79
2022-11-30T00:46:24.728Z,100387.73
2022-11-30T00:48:53.486Z,100357.02
2022-11-30T00:51:22.295Z,100351.96
2022-11-30T00:53:51.206Z,100362.41
2022-11-30T00:56:19.741Z,100354.65
2022-11-30T00:58:48.377Z,100336.27
2022-11-30T01:01:17.089Z,100331.23
2022-11-30T01:03:45.817Z,100328.23
2022-11-30T01:06:14.711Z,100314.58
2022-11-30T01:08:43.467Z,100313.69
2022-11-30T01:11:24.500Z,100320.36
2022-11-30T01:13:53.727Z,100319.55
2022-11-30T01:16:25.249Z,100304.23
2022-11-30T01:18:54.294Z,100300.84
2022-11-30T01:21:25.920Z,100299.71
2022-11-30T01:23:55.176Z,100283.90
2022-11-30T01:26:24.325Z,100268.58
2022-11-30T01:28:57.317Z,100262.25
2022-11-30T01:31:26.393Z,100255.77
2022-11-30T01:33:57.147Z,100257.45
2022-11-30T01:36:27.781Z,100255.20
2022-11-30T01:38:58.703Z,100242.31
2022-11-30T01:41:32.806Z,100237.22
2022-11-30T01:44:07.528Z,100223.90
2022-11-30T01:46:57.193Z,100211.46
2022-11-30T01:49:39.771Z,100203.73
2022-11-30T01:52:22.007Z,100195.17
2022-11-30T01:55:16.614Z,100194.23
2022-11-30T01:58:11.253Z,100202.13
2022-11-30T02:00:45.356Z,100201.10
2022-11-30T02:03:42.190Z,100185.31
2022-11-30T02:06:11.301Z,100185.41
2022-11-30T02:08:40.077Z,100171.35
2022-11-30T02:11:14.898Z,100162.86
2022-11-30T02:14:00.632Z,100148.92
2022-11-30T02:16:54.866Z,100139.12
2022-11-30T02:19:26.338Z,100133.48
2022-11-30T02:25:41.110Z,100132.91
2022-11-30T02:28:19.188Z,100116.71
2022-11-30T02:30:54.011Z,100116.44
2022-11-30T02:33:29.204Z,100111.42
2022-11-30T02:36:00.000Z,100107.77
2022-11-30T02:38:30.220Z,100094.58
2022-11-30T02:41:01.743Z,100088.23
2022-11-30T02:43:32.279Z,100073.55
2022-11-30T02:46:10.913Z,100067.91
2022-11-30T02:48:46.084Z,100065.64
2022-11-30T02:51:23.612Z,100079.13
2022-11-30T02:53:52.392Z,100088.46
2022-11-30T02:56:23.072Z,100083.00
2022-11-30T02:58:53.065Z,100085.02
2022-11-30T03:01:21.930Z,100090.00
2022-11-30T03:03:50.715Z,100080.66
2022-11-30T03:06:19.688Z,100069.47
2022-11-30T03:08:48.309Z,100064.77
2022-11-30T03:11:16.834Z,100065.29
2022-11-30T03:13:45.161Z,100056.43
2022-11-30T03:16:15.256Z,100048.96
2022-11-30T03:18:43.991Z,100048.73
2022-11-30T03:21:14.044Z,100051.38
2022-11-30T03:23:43.301Z,100053.23
2022-11-30T03:26:12.122Z,100043.28
2022-11-30T03:28:41.033Z,100040.33
2022-11-30T03:31:13.647Z,100029.39
2022-11-30T03:33:47.676Z,100027.23
2022-11-30T03:36:16.381Z,100022.46
2022-11-30T03:38:45.414Z,100017.75
2022-11-30T03:41:17.527Z,100011.91
2022-11-30T03:43:48.000Z,100001.60
2022-11-30T03:46:16.849Z,100001.54
2022-11-30T03:48:45.683Z,99993.79
2022-11-30T03:51:15.178Z,99983.85
2022-11-30T03:53:43.928Z,99986.77
2022-11-30T03:56:13.611Z,99982.86
2022-11-30T03:58:43.875Z,99985.11
2022-11-30T04:01:18.383Z,99984.79
2022-11-30T04:03:46.711Z,99981.15
2022-11-30T04:06:16.198Z,99989.57
2022-11-30T04:08:45.157Z,99996.71
2022-11-30T04:11:14.180Z,99999.23
2022-11-30T04:13:43.318Z,99994.14
2022-11-30T04:16:12.559Z,99982.89
2022-11-30T04:18:41.793Z,99981.76
2022-11-30T04:21:11.005Z,99977.38
2022-11-30T04:23:41.177Z,99964.46
2022-11-30T04:26:14.553Z,99957.94
2022-11-30T04:28:44.345Z,99958.29
2022-11-30T04:31:13.618Z,99950.98
2022-11-30T04:33:42.726Z,99952.20
2022-11-30T04:36:20.715Z,99954.42
2022-11-30T04:38:49.868Z,99957.48
2022-11-30T04:41:18.499Z,99963.60
2022-11-30T04:43:47.296Z,99969.42
2022-11-30T04:46:16.022Z,99970.41
2022-11-30T04:48:44.869Z,99976.91
2022-11-30T04:51:13.908Z,99975.70
2022-11-30T04:53:42.798Z,99984.93
2022-11-30T04:56:13.225Z,99985.64
2022-11-30T04:58:42.388Z,99981.70
